createdAt,value
2023-04-14T00:00:29.961Z,95265.91
2023-04-14T00:01:35.012Z,95266.72
2023-04-14T00:02:37.576Z,95274.56
2023-04-14T00:03:42.835Z,95267.03
2023-04-14T00:04:52.274Z,95267.13
2023-04-14T00:05:58.280Z,95266.41
2023-04-14T00:07:00.877Z,95259.69
2023-04-14T00:08:06.069Z,95263.16
2023-04-14T00:09:08.435Z,95259.69
2023-04-14T00:10:14.172Z,95258.03
2023-04-14T00:11:16.881Z,95260.63
2023-04-14T00:12:22.050Z,95269.09
2023-04-14T00:13:24.657Z,95262.31
2023-04-14T00:14:29.584Z,95262.31
2023-04-14T00:15:34.562Z,95261.47
2023-04-14T00:16:39.811Z,95264.13
2023-04-14T00:19:37.332Z,95270.31
2023-04-14T00:20:40.133Z,95266.97
2023-04-14T00:21:45.182Z,95277.28
2023-04-14T00:22:47.849Z,95272.28
2023-04-14T00:23:53.485Z,95275.78
2023-04-14T00:24:56.472Z,95281.00
2023-04-14T00:26:02.010Z,95279.34
2023-04-14T00:27:04.782Z,95279.34
2023-04-14T00:28:10.204Z,95282.78
2023-04-14T00:30:43.322Z,95281.84
2023-04-14T00:31:46.033Z,95286.03
2023-04-14T00:32:51.223Z,95291.03
2023-04-14T00:33:53.769Z,95279.84
2023-04-14T00:35:00.515Z,95285.75
2023-04-14T00:36:03.333Z,95288.97
2023-04-14T00:37:08.690Z,95287.13
2023-04-14T00:38:11.794Z,95286.97
2023-04-14T00:39:16.859Z,95286.88
2023-04-14T00:40:19.340Z,95286.66
2023-04-14T00:41:25.121Z,95289.06
2023-04-14T00:42:27.851Z,95283.91
2023-04-14T00:43:32.992Z,95287.19
2023-04-14T00:44:35.736Z,95289.63
2023-04-14T00:45:48.646Z,95286.94
2023-04-14T00:46:51.933Z,95297.00
2023-04-14T00:47:58.305Z,95297.72
2023-04-14T00:49:02.203Z,95295.94
2023-04-14T00:50:09.560Z,95294.06
2023-04-14T00:52:54.996Z,95296.34
2023-04-14T00:53:58.056Z,95295.41
2023-04-14T00:55:05.685Z,95290.19
2023-04-14T00:56:08.675Z,95301.19
2023-04-14T00:57:14.579Z,95297.63
2023-04-14T00:58:17.447Z,95300.91
2023-04-14T00:59:23.075Z,95307.72
2023-04-14T01:00:25.998Z,95309.34
2023-04-14T01:01:36.767Z,95307.53
2023-04-14T01:02:39.834Z,95300.72
2023-04-14T01:03:45.826Z,95304.94
2023-04-14T01:04:54.308Z,95313.34
2023-04-14T01:06:00.406Z,95314.97
2023-04-14T01:07:03.557Z,95308.91
2023-04-14T01:08:09.108Z,95315.66
2023-04-14T01:09:12.589Z,95313.78
2023-04-14T01:10:18.560Z,95317.16
2023-04-14T01:11:30.683Z,95311.91
2023-04-14T01:12:52.827Z,95317.78
2023-04-14T01:14:09.167Z,95314.25
2023-04-14T01:15:21.346Z,95314.16
2023-04-14T01:16:29.403Z,95314.13
2023-04-14T01:17:47.829Z,95314.97
2023-04-14T01:18:58.778Z,95320.81
2023-04-14T01:20:23.534Z,95317.31
2023-04-14T01:21:33.872Z,95312.13
2023-04-14T01:22:43.913Z,95317.16
2023-04-14T01:24:06.412Z,95316.25
2023-04-14T01:25:42.400Z,95325.63
2023-04-14T01:26:49.222Z,95327.97
2023-04-14T01:28:06.060Z,95321.16
2023-04-14T01:29:47.157Z,95318.50
2023-04-14T01:31:06.818Z,95319.22
2023-04-14T01:33:46.443Z,95331.97
2023-04-14T01:34:54.603Z,95331.09
2023-04-14T01:36:06.540Z,95331.09
2023-04-14T01:37:17.484Z,95328.53
2023-04-14T01:38:26.049Z,95328.53
2023-04-14T01:39:37.946Z,95332.84
2023-04-14T01:40:43.882Z,95327.53
2023-04-14T01:41:53.132Z,95325.91
2023-04-14T01:43:03.177Z,95326.84
2023-04-14T01:44:11.486Z,95325.19
2023-04-14T01:45:19.884Z,95326.84
2023-04-14T01:46:25.266Z,95325.16
2023-04-14T01:47:31.151Z,95326.84
2023-04-14T01:48:36.733Z,95329.47
2023-04-14T01:49:41.050Z,95329.47
2023-04-14T01:50:47.483Z,95322.63
2023-04-14T01:51:51.632Z,95319.94
2023-04-14T01:52:58.170Z,95327.63
2023-04-14T01:54:03.936Z,95329.25
2023-04-14T01:55:12.088Z,95320.63
2023-04-14T01:56:17.569Z,95324.16
2023-04-14T01:57:24.143Z,95322.59
2023-04-14T01:58:28.982Z,95328.53
2023-04-14T01:59:37.140Z,95324.28
2023-04-14T02:00:42.150Z,95321.78
2023-04-14T02:01:50.146Z,95326.84
2023-04-14T02:02:56.338Z,95334.53
2023-04-14T02:04:03.219Z,95327.75
2023-04-14T02:05:09.403Z,95330.19
2023-04-14T02:06:17.216Z,95330.31
2023-04-14T02:07:22.390Z,95327.72
2023-04-14T02:08:28.703Z,95334.38
2023-04-14T02:09:33.559Z,95331.78
2023-04-14T02:10:41.984Z,95327.72
2023-04-14T02:11:46.666Z,95326.09
2023-04-14T02:12:56.529Z,95332.88
2023-04-14T02:14:01.627Z,95323.56
2023-04-14T02:15:12.910Z,95325.19
2023-04-14T02:16:16.917Z,95326.00
2023-04-14T02:17:24.655Z,95325.06
2023-04-14T02:18:32.064Z,95319.13
2023-04-14T02:19:38.815Z,95330.31
2023-04-14T02:20:45.269Z,95327.78
2023-04-14T02:21:52.796Z,95322.47
2023-04-14T02:22:56.592Z,95320.75
2023-04-14T02:24:02.025Z,95322.47
2023-04-14T02:25:06.116Z,95321.84
2023-04-14T02:26:16.384Z,95318.41
2023-04-14T02:27:25.963Z,95325.06
2023-04-14T02:28:35.671Z,95314.97
2023-04-14T02:29:45.691Z,95318.41
2023-04-14T02:30:52.789Z,95313.38
2023-04-14T02:32:04.019Z,95313.47
2023-04-14T02:33:10.681Z,95320.41
2023-04-14T02:34:23.940Z,95319.56
2023-04-14T02:35:30.112Z,95316.16
2023-04-14T02:36:39.675Z,95317.84
2023-04-14T02:37:45.491Z,95310.19
2023-04-14T02:38:58.526Z,95318.66
2023-04-14T02:40:33.843Z,95311.81
2023-04-14T02:41:41.019Z,95309.31
2023-04-14T02:42:52.031Z,95316.94
2023-04-14T02:44:05.319Z,95316.81
2023-04-14T02:45:16.763Z,95321.94
2023-04-14T02:46:22.878Z,95320.41
2023-04-14T02:47:32.850Z,95314.03
2023-04-14T02:48:38.806Z,95321.84
2023-04-14T02:51:09.132Z,95321.78
2023-04-14T02:52:14.548Z,95319.94
2023-04-14T02:53:24.147Z,95314.72
2023-04-14T02:54:27.906Z,95317.28
2023-04-14T02:55:35.300Z,95320.78
2023-04-14T02:56:38.331Z,95317.47
2023-04-14T02:57:43.689Z,95320.28
2023-04-14T02:58:47.328Z,95323.72
2023-04-14T02:59:54.535Z,95321.94
2023-04-14T03:00:58.548Z,95320.44
2023-04-14T03:02:06.277Z,95316.25
2023-04-14T03:03:10.441Z,95324.72
2023-04-14T03:04:18.390Z,95326.50
2023-04-14T03:05:22.425Z,95325.81
2023-04-14T03:06:32.092Z,95323.34
2023-04-14T03:07:35.854Z,95327.66
2023-04-14T03:08:43.353Z,95323.47
2023-04-14T03:09:49.772Z,95324.38
2023-04-14T03:10:57.459Z,95321.84
2023-04-14T03:12:02.205Z,95316.81
2023-04-14T03:13:09.971Z,95317.69
2023-04-14T03:14:14.230Z,95317.59
2023-04-14T03:15:21.854Z,95321.03
2023-04-14T03:16:26.639Z,95316.00
2023-04-14T03:17:32.881Z,95326.16
2023-04-14T03:18:37.642Z,95328.69
2023-04-14T03:19:43.795Z,95319.47
2023-04-14T03:20:47.352Z,95311.09
2023-04-14T03:21:56.294Z,95316.28
2023-04-14T03:23:05.491Z,95319.66
2023-04-14T03:24:14.409Z,95315.41
2023-04-14T03:25:18.252Z,95310.31
2023-04-14T03:26:28.948Z,95315.41
2023-04-14T03:27:33.666Z,95315.41
2023-04-14T03:28:41.651Z,95318.00
2023-04-14T03:29:48.592Z,95312.97
2023-04-14T03:30:56.472Z,95312.97
2023-04-14T03:32:01.998Z,95313.72
2023-04-14T03:33:12.235Z,95316.44
2023-04-14T03:34:17.030Z,95314.53
2023-04-14T03:35:24.054Z,95311.22
2023-04-14T03:36:30.477Z,95313.81
2023-04-14T03:37:40.155Z,95307.97
2023-04-14T03:38:47.395Z,95309.63
2023-04-14T03:39:52.837Z,95302.75
2023-04-14T03:41:04.003Z,95304.47
2023-04-14T03:42:11.612Z,95305.44
2023-04-14T03:43:20.400Z,95299.59
2023-04-14T03:44:27.796Z,95297.19
2023-04-14T03:45:32.647Z,95299.13
2023-04-14T03:46:38.566Z,95299.25
2023-04-14T03:47:41.637Z,95293.44
2023-04-14T03:48:50.682Z,95297.09
2023-04-14T03:49:57.652Z,95297.28
2023-04-14T03:51:05.221Z,95300.09
2023-04-14T03:52:12.030Z,95302.81
2023-04-14T03:54:44.709Z,95303.81
2023-04-14T03:56:02.898Z,95300.56
2023-04-14T03:57:11.716Z,95294.63
2023-04-14T03:58:17.239Z,95297.09
2023-04-14T03:59:25.093Z,95295.53
2023-04-14T04:00:30.090Z,95297.31
2023-04-14T04:01:37.914Z,95293.22
2023-04-14T04:02:42.109Z,95291.69
2023-04-14T04:03:48.890Z,95296.94
2023-04-14T04:04:53.546Z,95296.16
2023-04-14T04:05:59.262Z,95291.13
2023-04-14T04:07:02.505Z,95287.84
2023-04-14T04:08:10.183Z,95287.13
2023-04-14T04:09:16.354Z,95294.13
2023-04-14T04:10:25.877Z,95289.19
2023-04-14T04:11:30.733Z,95285.84
2023-04-14T04:12:37.230Z,95288.47
2023-04-14T04:13:43.040Z,95283.53
2023-04-14T04:14:48.886Z,95289.56
2023-04-14T04:15:52.306Z,95285.50
2023-04-14T04:17:00.094Z,95297.63
2023-04-14T04:18:07.307Z,95290.16
2023-04-14T04:19:14.445Z,95296.28
2023-04-14T04:20:18.539Z,95290.47
2023-04-14T04:21:25.084Z,95291.44
2023-04-14T04:22:29.594Z,95294.00
2023-04-14T04:23:38.743Z,95296.22
2023-04-14T04:24:43.132Z,95299.97
2023-04-14T04:25:51.748Z,95300.53
2023-04-14T04:26:56.332Z,95306.47
2023-04-14T04:28:03.190Z,95303.06
2023-04-14T04:29:07.386Z,95303.06
2023-04-14T04:30:14.917Z,95306.47
2023-04-14T04:31:20.236Z,95309.94
2023-04-14T04:32:27.301Z,95304.53
2023-04-14T04:33:32.249Z,95312.19
2023-04-14T04:34:38.690Z,95318.19
2023-04-14T04:35:43.733Z,95315.56
2023-04-14T04:36:50.204Z,95319.16
2023-04-14T04:37:54.146Z,95320.16
2023-04-14T04:39:00.659Z,95324.56
2023-04-14T04:40:04.716Z,95321.06
2023-04-14T04:41:24.666Z,95325.06
2023-04-14T04:42:42.939Z,95326.28
2023-04-14T04:44:01.825Z,95320.13
2023-04-14T04:45:07.382Z,95322.59
2023-04-14T04:46:29.712Z,95325.84
2023-04-14T04:47:35.688Z,95318.06
2023-04-14T04:50:42.287Z,95330.69
2023-04-14T04:51:44.968Z,95335.81
2023-04-14T04:52:50.171Z,95329.72
2023-04-14T04:53:53.046Z,95324.75
2023-04-14T04:54:58.218Z,95331.50
2023-04-14T04:56:00.755Z,95332.31
2023-04-14T04:57:08.446Z,95331.53
2023-04-14T04:58:11.022Z,95333.16
2023-04-14T04:59:16.528Z,95334.09
2023-04-14T05:00:23.164Z,95340.91
2023-04-14T05:01:28.218Z,95335.78
2023-04-14T05:02:30.866Z,95342.56
2023-04-14T05:03:36.119Z,95340.78
2023-04-14T05:04:38.727Z,95345.91
2023-04-14T05:05:43.759Z,95339.91
2023-04-14T05:06:45.968Z,95342.47
2023-04-14T05:07:51.005Z,95345.81
2023-04-14T05:08:53.845Z,95346.63
2023-04-14T05:09:58.822Z,95350.72
2023-04-14T05:11:01.472Z,95350.09
2023-04-14T05:12:09.124Z,95354.50
2023-04-14T05:13:11.656Z,95350.72
2023-04-14T05:14:16.591Z,95353.41
2023-04-14T05:15:18.970Z,95357.91
2023-04-14T05:16:24.207Z,95363.09
2023-04-14T05:17:27.464Z,95359.03
2023-04-14T05:18:32.940Z,95364.13
2023-04-14T05:19:39.250Z,95363.13
2023-04-14T05:20:41.534Z,95358.00
2023-04-14T05:22:10.131Z,95371.00
2023-04-14T05:23:13.633Z,95369.25
2023-04-14T05:24:18.908Z,95364.88
2023-04-14T05:25:21.680Z,95367.44
2023-04-14T05:26:49.114Z,95371.00
2023-04-14T05:27:51.987Z,95370.91
2023-04-14T05:28:56.853Z,95378.66
2023-04-14T05:29:59.095Z,95379.47
2023-04-14T05:31:04.195Z,95378.75
2023-04-14T05:32:06.732Z,95380.44
2023-04-14T05:33:11.902Z,95373.34
2023-04-14T05:34:17.504Z,95377.34
2023-04-14T05:35:20.304Z,95379.03
2023-04-14T05:36:25.548Z,95379.78
2023-04-14T05:37:30.253Z,95383.31
2023-04-14T05:38:35.202Z,95383.38
2023-04-14T05:39:37.412Z,95386.84
2023-04-14T05:40:42.775Z,95389.41
2023-04-14T05:41:47.804Z,95388.63
2023-04-14T05:42:53.251Z,95389.44
2023-04-14T05:43:58.993Z,95392.88
2023-04-14T05:45:01.345Z,95392.06
2023-04-14T05:46:06.348Z,95395.44
2023-04-14T05:47:09.174Z,95397.88
2023-04-14T05:48:14.591Z,95396.91
2023-04-14T05:49:19.788Z,95404.44
2023-04-14T05:50:22.609Z,95400.09
2023-04-14T05:51:28.029Z,95411.19
2023-04-14T05:52:30.581Z,95403.53
2023-04-14T05:53:35.828Z,95403.50
2023-04-14T05:54:38.107Z,95403.50
2023-04-14T05:55:44.305Z,95409.38
2023-04-14T05:56:46.689Z,95407.97
2023-04-14T05:57:54.364Z,95406.09
2023-04-14T05:58:56.985Z,95410.31
2023-04-14T06:00:01.757Z,95409.56
2023-04-14T06:01:04.594Z,95408.03
2023-04-14T06:02:09.538Z,95413.91
2023-04-14T06:03:12.126Z,95417.06
2023-04-14T06:04:17.762Z,95411.03
2023-04-14T06:05:20.365Z,95408.53
2023-04-14T06:06:26.464Z,95415.22
2023-04-14T06:07:28.909Z,95411.50
2023-04-14T06:08:34.310Z,95404.31
2023-04-14T06:09:39.029Z,95413.66
2023-04-14T06:10:44.345Z,95413.47
2023-04-14T06:11:47.113Z,95410.03
2023-04-14T06:12:54.889Z,95411.59
2023-04-14T06:13:57.165Z,95407.28
2023-04-14T06:15:03.739Z,95410.63
2023-04-14T06:18:10.619Z,95411.81
2023-04-14T06:19:41.632Z,95420.47
2023-04-14T06:20:47.667Z,95412.47
2023-04-14T06:21:50.903Z,95410.59
2023-04-14T06:22:56.582Z,95416.03
2023-04-14T06:24:00.465Z,95410.91
2023-04-14T06:25:06.857Z,95408.34
2023-04-14T06:26:13.603Z,95409.84
2023-04-14T06:27:17.624Z,95412.00
2023-04-14T06:28:26.747Z,95410.81
2023-04-14T06:29:29.920Z,95409.66
2023-04-14T06:30:35.752Z,95405.09
2023-04-14T06:31:40.029Z,95406.59
2023-04-14T06:32:47.368Z,95411.75
2023-04-14T06:33:52.834Z,95402.69
2023-04-14T06:34:57.598Z,95408.13
2023-04-14T06:36:03.216Z,95404.03
2023-04-14T06:37:05.967Z,95395.00
2023-04-14T06:38:10.999Z,95394.41
2023-04-14T06:39:14.153Z,95394.78
2023-04-14T06:40:19.593Z,95396.63
2023-04-14T06:41:22.164Z,95396.31
2023-04-14T06:42:27.716Z,95396.13
2023-04-14T06:43:33.538Z,95386.78
2023-04-14T06:44:38.998Z,95387.41
2023-04-14T06:45:42.180Z,95393.53
2023-04-14T06:46:47.401Z,95384.56
2023-04-14T06:47:50.265Z,95381.91
2023-04-14T06:48:56.238Z,95385.09
2023-04-14T06:51:36.739Z,95382.94
2023-04-14T06:52:43.021Z,95384.44
2023-04-14T06:53:48.119Z,95379.81
2023-04-14T06:54:51.253Z,95385.84
2023-04-14T06:55:59.652Z,95377.78
2023-04-14T06:57:05.271Z,95374.34
2023-04-14T06:58:08.800Z,95364.66
2023-04-14T06:59:17.279Z,95366.00
2023-04-14T07:00:20.405Z,95359.84
2023-04-14T07:01:26.156Z,95363.91
2023-04-14T07:02:29.496Z,95360.19
2023-04-14T07:03:35.589Z,95358.03
2023-04-14T07:04:38.731Z,95355.69
2023-04-14T07:05:44.047Z,95346.09
2023-04-14T07:06:46.911Z,95350.41
2023-04-14T07:07:52.798Z,95349.91
2023-04-14T07:08:58.456Z,95345.75
2023-04-14T07:10:01.833Z,95350.44
2023-04-14T07:11:09.105Z,95352.19
2023-04-14T07:12:17.188Z,95345.66
2023-04-14T07:13:20.369Z,95347.88
2023-04-14T07:14:28.914Z,95348.28
2023-04-14T07:15:31.302Z,95348.66
2023-04-14T07:16:36.599Z,95350.97
2023-04-14T07:17:42.806Z,95344.75
2023-04-14T07:18:45.865Z,95347.44
2023-04-14T07:19:51.901Z,95345.22
2023-04-14T07:20:54.766Z,95350.28
2023-04-14T07:22:00.464Z,95347.00
2023-04-14T07:23:06.211Z,95343.03
2023-04-14T07:24:09.793Z,95337.13
2023-04-14T07:25:15.069Z,95338.66
2023-04-14T07:26:17.768Z,95338.00
2023-04-14T07:27:23.250Z,95346.09
2023-04-14T07:28:27.317Z,95335.66
2023-04-14T07:29:34.639Z,95338.38
2023-04-14T07:30:37.067Z,95337.41
2023-04-14T07:31:41.726Z,95336.75
2023-04-14T07:32:46.846Z,95341.38
2023-04-14T07:33:51.889Z,95343.34
2023-04-14T07:34:58.338Z,95340.66
2023-04-14T07:36:03.548Z,95343.81
2023-04-14T07:37:08.714Z,95347.94
2023-04-14T07:38:13.360Z,95337.38
2023-04-14T07:39:22.406Z,95337.50
2023-04-14T07:40:24.492Z,95332.22
2023-04-14T07:41:29.925Z,95338.91
2023-04-14T07:42:34.534Z,95345.59
2023-04-14T07:43:36.602Z,95338.97
2023-04-14T07:44:44.161Z,95347.25
2023-04-14T07:45:46.320Z,95347.88
2023-04-14T07:46:51.199Z,95348.34
2023-04-14T07:47:55.286Z,95340.69
2023-04-14T07:49:03.809Z,95343.44
2023-04-14T07:50:10.172Z,95341.22
2023-04-14T07:51:12.427Z,95335.72
2023-04-14T07:52:17.198Z,95341.91
2023-04-14T07:53:19.283Z,95341.06
2023-04-14T07:54:23.961Z,95332.94
2023-04-14T07:55:27.595Z,95339.41
2023-04-14T07:56:32.361Z,95338.56
2023-04-14T07:57:35.204Z,95337.28
2023-04-14T07:58:40.306Z,95335.84
2023-04-14T07:59:45.037Z,95334.72
2023-04-14T08:00:49.683Z,95335.41
2023-04-14T08:01:54.532Z,95325.47
2023-04-14T08:02:56.891Z,95325.00
2023-04-14T08:04:01.858Z,95333.00
2023-04-14T08:05:04.437Z,95329.28
2023-04-14T08:06:09.738Z,95338.06
2023-04-14T08:07:12.283Z,95341.69
2023-04-14T08:08:17.067Z,95328.03
2023-04-14T08:09:21.733Z,95330.63
2023-04-14T08:10:23.818Z,95333.75
2023-04-14T08:11:28.468Z,95334.28
2023-04-14T08:12:30.540Z,95329.25
2023-04-14T08:13:35.194Z,95334.25
2023-04-14T08:14:40.333Z,95331.69
2023-04-14T08:15:44.987Z,95328.38
2023-04-14T08:16:49.885Z,95322.56
2023-04-14T08:17:52.358Z,95320.41
2023-04-14T08:18:58.112Z,95322.59
2023-04-14T08:20:00.396Z,95320.91
2023-04-14T08:21:05.064Z,95315.44
2023-04-14T08:22:07.201Z,95320.69
2023-04-14T08:23:11.908Z,95322.63
2023-04-14T08:24:16.618Z,95322.59
2023-04-14T08:25:18.798Z,95327.28
2023-04-14T08:26:23.942Z,95323.81
2023-04-14T08:27:26.082Z,95310.97
2023-04-14T08:28:31.306Z,95314.50
2023-04-14T08:29:33.407Z,95319.81
2023-04-14T08:30:38.231Z,95322.81
2023-04-14T08:31:45.767Z,95319.19
2023-04-14T08:32:47.914Z,95316.81
2023-04-14T08:33:53.282Z,95325.00
2023-04-14T08:35:36.325Z,95319.16
2023-04-14T08:36:20.318Z,95320.81
2023-04-14T08:37:23.176Z,95316.75
2023-04-14T08:38:27.839Z,95307.66
2023-04-14T08:39:29.962Z,95311.00
2023-04-14T08:40:38.999Z,95313.41
2023-04-14T08:41:45.044Z,95312.41
2023-04-14T08:42:49.765Z,95303.25
2023-04-14T08:43:51.839Z,95310.94
2023-04-14T08:44:56.545Z,95306.56
2023-04-14T08:46:02.871Z,95302.50
2023-04-14T08:47:08.309Z,95288.56
2023-04-14T08:48:17.555Z,95293.56
2023-04-14T08:49:38.760Z,95303.47
2023-04-14T08:50:51.558Z,95306.63
2023-04-14T08:51:57.997Z,95300.81
2023-04-14T08:53:05.997Z,95303.84
2023-04-14T08:54:10.551Z,95300.53
2023-04-14T08:55:16.606Z,95291.50
2023-04-14T08:56:21.675Z,95296.28
2023-04-14T08:57:29.135Z,95296.56
2023-04-14T08:58:34.434Z,95291.31
2023-04-14T08:59:40.625Z,95290.63
2023-04-14T09:00:45.412Z,95289.25
2023-04-14T09:01:47.937Z,95277.63
2023-04-14T09:02:56.411Z,95283.84
2023-04-14T09:03:59.127Z,95278.69
2023-04-14T09:05:04.554Z,95273.00
2023-04-14T09:06:09.276Z,95260.75
2023-04-14T09:07:14.729Z,95266.28
2023-04-14T09:08:17.337Z,95267.56
2023-04-14T09:09:22.272Z,95258.75
2023-04-14T09:10:24.874Z,95260.66
2023-04-14T09:11:31.124Z,95257.16
2023-04-14T09:12:34.277Z,95265.09
2023-04-14T09:13:39.564Z,95255.19
2023-04-14T09:14:46.688Z,95266.88
2023-04-14T09:15:49.900Z,95270.25
2023-04-14T09:16:56.575Z,95270.25
2023-04-14T09:18:04.155Z,95265.59
2023-04-14T09:19:30.867Z,95249.69
2023-04-14T09:20:41.012Z,95270.63
2023-04-14T09:21:52.653Z,95246.06
2023-04-14T09:22:59.331Z,95253.22
2023-04-14T09:24:01.941Z,95263.25
2023-04-14T09:25:07.925Z,95251.91
2023-04-14T09:26:13.733Z,95248.59
2023-04-14T09:27:18.528Z,95250.88
2023-04-14T09:28:23.354Z,95265.38
2023-04-14T09:29:29.633Z,95241.84
2023-04-14T09:30:34.514Z,95252.63
2023-04-14T09:31:37.145Z,95242.34
2023-04-14T09:32:43.242Z,95245.81
2023-04-14T09:33:52.921Z,95247.56
2023-04-14T09:34:58.626Z,95244.22
2023-04-14T09:36:00.954Z,95254.56
2023-04-14T09:37:07.654Z,95262.97
2023-04-14T09:38:09.723Z,95259.53
2023-04-14T09:39:20.488Z,95249.94
2023-04-14T09:40:32.234Z,95252.53
2023-04-14T09:41:37.200Z,95247.06
2023-04-14T09:42:43.928Z,95255.50
2023-04-14T09:43:46.183Z,95255.22
2023-04-14T09:44:57.941Z,95247.81
2023-04-14T09:46:04.909Z,95243.28
2023-04-14T09:47:10.191Z,95253.91
2023-04-14T09:48:13.264Z,95259.38
2023-04-14T09:49:20.523Z,95249.34
2023-04-14T09:50:25.266Z,95258.81
2023-04-14T09:51:29.081Z,95247.09
2023-04-14T09:52:41.973Z,95247.19
2023-04-14T09:53:45.683Z,95250.41
2023-04-14T09:54:58.039Z,95238.34
2023-04-14T09:56:03.387Z,95249.84
2023-04-14T09:57:08.185Z,95235.94
2023-04-14T09:58:10.938Z,95249.78
2023-04-14T09:59:15.703Z,95269.13
2023-04-14T10:00:25.310Z,95266.78
2023-04-14T10:01:31.550Z,95285.53
2023-04-14T10:02:51.219Z,95275.22
2023-04-14T10:03:56.148Z,95284.00
2023-04-14T10:05:07.626Z,95269.03
2023-04-14T10:06:19.300Z,95257.56
2023-04-14T10:07:21.147Z,95255.03
2023-04-14T10:08:36.220Z,95255.63
2023-04-14T10:09:43.046Z,95259.78
2023-04-14T10:10:45.249Z,95237.00
2023-04-14T10:11:49.959Z,95221.66
2023-04-14T10:12:56.565Z,95226.66
2023-04-14T10:14:01.121Z,95230.81
2023-04-14T10:15:06.443Z,95206.63
2023-04-14T10:16:09.114Z,95212.38
2023-04-14T10:17:13.980Z,95199.13
2023-04-14T10:18:16.352Z,95195.34
2023-04-14T10:19:22.076Z,95208.31
2023-04-14T10:20:29.784Z,95209.38
2023-04-14T10:21:33.413Z,95223.13
2023-04-14T10:22:40.871Z,95219.50
2023-04-14T10:23:44.945Z,95214.63
2023-04-14T10:24:50.371Z,95222.25
2023-04-14T10:25:54.737Z,95209.78
2023-04-14T10:27:03.224Z,95219.53
2023-04-14T10:28:08.240Z,95220.00
2023-04-14T10:29:12.919Z,95223.22
2023-04-14T10:30:17.846Z,95234.44
2023-04-14T10:31:28.783Z,95209.97
2023-04-14T10:32:41.263Z,95210.28
2023-04-14T10:33:46.831Z,95198.63
2023-04-14T10:35:02.568Z,95201.00
2023-04-14T10:36:10.069Z,95189.78
2023-04-14T10:37:16.020Z,95182.75
2023-04-14T10:38:18.187Z,95186.09
2023-04-14T10:39:27.802Z,95197.75
2023-04-14T10:40:46.568Z,95188.28
2023-04-14T10:41:52.865Z,95182.41
2023-04-14T10:42:56.639Z,95179.81
2023-04-14T10:44:01.408Z,95192.03
2023-04-14T10:45:08.764Z,95188.28
2023-04-14T10:46:11.363Z,95176.41
2023-04-14T10:47:26.734Z,95175.53
2023-04-14T10:48:33.540Z,95179.16
2023-04-14T10:49:39.962Z,95193.50
2023-04-14T10:50:47.856Z,95180.44
2023-04-14T10:51:55.433Z,95182.25
2023-04-14T10:53:01.094Z,95172.03
2023-04-14T10:54:06.893Z,95160.88
2023-04-14T10:55:10.215Z,95165.56
2023-04-14T10:56:15.833Z,95161.63
2023-04-14T10:57:19.422Z,95153.66
2023-04-14T10:58:29.739Z,95166.72
2023-04-14T10:59:32.884Z,95164.69
2023-04-14T11:00:41.864Z,95179.19
2023-04-14T11:01:44.104Z,95180.28
2023-04-14T11:02:58.865Z,95173.28
2023-04-14T11:04:20.605Z,95173.16
2023-04-14T11:05:22.917Z,95197.00
2023-04-14T11:06:57.424Z,95184.34
2023-04-14T11:08:03.177Z,95170.00
2023-04-14T11:09:23.409Z,95173.09
2023-04-14T11:10:32.194Z,95167.50
2023-04-14T11:11:35.301Z,95166.91
2023-04-14T11:12:46.122Z,95176.28
2023-04-14T11:14:16.400Z,95154.50
2023-04-14T11:15:18.528Z,95170.47
2023-04-14T11:16:31.762Z,95162.59
2023-04-14T11:17:40.591Z,95157.63
2023-04-14T11:18:46.046Z,95166.09
2023-04-14T11:19:48.734Z,95172.13
2023-04-14T11:20:55.544Z,95179.63
2023-04-14T11:21:58.174Z,95172.28
2023-04-14T11:23:03.206Z,95167.19
2023-04-14T11:24:08.016Z,95171.03
2023-04-14T11:25:15.043Z,95163.03
2023-04-14T11:26:20.029Z,95157.34
2023-04-14T11:27:22.120Z,95156.88
2023-04-14T11:28:31.688Z,95152.25
2023-04-14T11:29:36.345Z,95155.09
2023-04-14T11:30:44.699Z,95142.44
2023-04-14T11:31:47.222Z,95152.34
2023-04-14T11:32:54.232Z,95147.03
2023-04-14T11:33:59.074Z,95148.78
2023-04-14T11:35:08.132Z,95152.31
2023-04-14T11:36:14.566Z,95139.94
2023-04-14T11:37:16.610Z,95153.31
2023-04-14T11:38:21.302Z,95140.94
2023-04-14T11:39:23.711Z,95132.34
2023-04-14T11:40:30.187Z,95138.31
2023-04-14T11:41:33.054Z,95131.44
2023-04-14T11:42:37.933Z,95131.59
2023-04-14T11:43:47.278Z,95142.25
2023-04-14T11:45:00.383Z,95139.38
2023-04-14T11:46:08.774Z,95129.59
2023-04-14T11:47:13.657Z,95115.69
2023-04-14T11:48:16.970Z,95118.41
2023-04-14T11:49:22.258Z,95108.88
2023-04-14T11:50:24.670Z,95103.44
2023-04-14T11:51:33.869Z,95106.06
2023-04-14T11:52:35.948Z,95089.03
2023-04-14T11:53:40.795Z,95095.06
2023-04-14T11:54:43.196Z,95084.06
2023-04-14T11:55:49.971Z,95091.06
2023-04-14T11:56:52.200Z,95074.16
2023-04-14T11:58:07.609Z,95082.41
2023-04-14T11:59:10.219Z,95089.19
2023-04-14T12:00:18.099Z,95094.59
2023-04-14T12:01:25.572Z,95083.31
2023-04-14T12:02:28.017Z,95083.28
2023-04-14T12:03:35.826Z,95096.78
2023-04-14T12:04:38.315Z,95100.91
2023-04-14T12:05:43.456Z,95112.78
2023-04-14T12:06:45.675Z,95104.19
2023-04-14T12:07:51.596Z,95107.78
2023-04-14T12:08:54.642Z,95098.53
2023-04-14T12:09:59.402Z,95110.13
2023-04-14T12:11:13.376Z,95112.44
2023-04-14T12:12:20.374Z,95109.59
2023-04-14T12:13:25.093Z,95109.31
2023-04-14T12:14:33.586Z,95094.09
2023-04-14T12:15:45.198Z,95084.75
2023-04-14T12:16:50.627Z,95083.44
2023-04-14T12:17:55.827Z,95088.03
2023-04-14T12:19:02.032Z,95086.44
2023-04-14T12:20:07.955Z,95076.97
2023-04-14T12:21:13.075Z,95061.28
2023-04-14T12:22:25.611Z,95063.75
2023-04-14T12:23:30.298Z,95065.13
2023-04-14T12:24:36.473Z,95037.34
2023-04-14T12:25:41.769Z,95056.03
2023-04-14T12:26:46.643Z,95063.75
2023-04-14T12:27:54.013Z,95047.78
2023-04-14T12:29:02.850Z,95051.38
2023-04-14T12:30:09.914Z,95049.06
2023-04-14T12:31:17.446Z,95044.09
2023-04-14T12:32:21.578Z,95048.06
2023-04-14T12:33:26.846Z,95048.00
2023-04-14T12:34:32.662Z,95052.53
2023-04-14T12:35:55.183Z,95059.75
2023-04-14T12:36:57.756Z,95067.06
2023-04-14T12:38:02.581Z,95081.44
2023-04-14T12:39:05.617Z,95082.84
2023-04-14T12:40:12.572Z,95086.69
2023-04-14T12:41:24.801Z,95097.81
2023-04-14T12:42:30.553Z,95090.72
2023-04-14T12:43:36.981Z,95078.59
2023-04-14T12:44:39.030Z,95090.56
2023-04-14T12:45:44.926Z,95088.81
2023-04-14T12:46:51.533Z,95080.16
2023-04-14T12:48:00.323Z,95089.78
2023-04-14T12:49:03.062Z,95083.72
2023-04-14T12:50:28.299Z,95079.59
2023-04-14T12:51:41.888Z,95083.25
2023-04-14T12:52:44.782Z,95082.78
2023-04-14T12:53:55.330Z,95083.28
2023-04-14T12:54:57.474Z,95077.56
2023-04-14T12:56:09.828Z,95072.94
2023-04-14T12:57:12.618Z,95061.66
2023-04-14T12:58:17.236Z,95057.34
2023-04-14T12:59:22.374Z,95048.13
2023-04-14T13:00:27.381Z,95040.63
2023-04-14T13:01:32.137Z,95029.06
2023-04-14T13:02:37.556Z,95016.94
2023-04-14T13:03:47.788Z,95011.16
2023-04-14T13:04:50.652Z,95000.84
2023-04-14T13:05:56.730Z,95011.09
2023-04-14T13:06:58.813Z,95028.84
2023-04-14T13:08:03.468Z,95029.72
2023-04-14T13:09:17.413Z,95025.69
2023-04-14T13:10:19.540Z,95035.75
2023-04-14T13:11:26.529Z,95041.69
2023-04-14T13:12:28.583Z,95030.63
2023-04-14T13:13:33.195Z,95030.16
2023-04-14T13:14:35.260Z,95030.09
2023-04-14T13:16:15.260Z,95028.19